Time;durP1;ratioP1;P1;durP2;ratioP2;P2;SDS_P1;SDS_P2;PMS_P1;PMS_P2;Temp;Humidity;BMP_temperature;BMP_pressure;BME280_temperature;BME280_humidity;BME280_pressure;Samples;Min_cycle;Max_cycle;Signal;HPM_P1;HPM_P2
2020/12/14 00:02:17;;;;;;;;;;;;;;;3.87;80.28;98116.59;1820467;78;25618;-87
2020/12/14 00:05:04;;;;;;;;;;;;;;;3.75;80.30;98113.67;1798420;78;20502;-88
2020/12/14 00:07:57;;;;;;;;;;;;;;;3.71;80.25;98117.75;1795408;78;25679;-87
2020/12/14 00:10:43;;;;;;;;;;;;;;;3.76;80.21;98118.40;1827225;78;22127;-87
2020/12/14 00:13:31;;;;;;;;;;;;;;;3.88;80.17;98119.53;1824377;78;26103;-88
2020/12/14 00:16:18;;;;;;;;;;;;;;;3.98;80.16;98113.03;1769071;78;25312;-87
2020/12/14 00:18:52;;;;;;;;;;;;;;;4.02;80.14;98120.56;1826154;78;20262;-88
2020/12/14 00:21:39;;;;;;;;;;;;;;;3.99;80.12;98118.11;1819668;78;24896;-88
2020/12/14 00:24:25;;;;;;;;;;;;;;;3.90;80.15;98115.98;1825402;78;22257;-86
2020/12/14 00:27:15;;;;;;;;;;;;;;;3.83;80.14;98118.47;1778057;80;26383;-87
2020/12/14 00:30:02;;;;;;;;;;;;;;;3.92;80.10;98118.05;1819030;79;24603;-87
2020/12/14 00:32:49;;;;;;;;;;;;;;;3.92;80.09;98123.67;1773308;80;20433;-87
2020/12/14 00:35:35;;;;;;;;;;;;;;;3.89;80.07;98132.86;1794419;79;24871;-87
2020/12/14 00:38:22;;;;;;;;;;;;;;;3.76;80.07;98138.62;1782207;79;22143;-87
2020/12/14 00:41:08;;;;;;;;;;;;;;;3.61;80.04;98136.75;1757707;80;27016;-87
2020/12/14 00:43:57;;;;;;;;;;;;;;;3.52;80.02;98129.44;1805942;78;24408;-87
2020/12/14 00:46:43;;;;;;;;;;;;;;;3.46;79.98;98131.00;1816085;78;20478;-87
2020/12/14 00:49:20;;;;;;;;;;;;;;;3.40;79.96;98124.82;1788324;79;25292;-88
2020/12/14 00:52:08;;;;;;;;;;;;;;;3.54;79.89;98119.87;1750224;80;22146;-88
2020/12/14 00:54:54;;;;;;;;;;;;;;;3.60;79.86;98129.90;1775053;78;25319;-87
2020/12/14 00:57:41;;;;;;;;;;;;;;;3.59;79.85;98137.30;1785725;79;24727;-88
2020/12/14 01:00:28;;;;;;;;;;;;;;;3.59;79.85;98142.48;1800365;79;20573;-88
2020/12/14 01:03:15;;;;;;;;;;;;;;;3.57;79.84;98148.16;1795464;79;25067;-88
2020/12/14 01:06:02;;;;;;;;;;;;;;;3.53;79.81;98153.11;1751938;80;22273;-88
2020/12/14 01:08:53;;;;;;;;;;;;;;;3.44;79.81;98161.27;1814798;78;26165;-88
2020/12/14 01:11:42;;;;;;;;;;;;;;;3.48;79.77;98168.45;1815907;78;24887;-87
2020/12/14 01:14:28;;;;;;;;;;;;;;;3.44;79.73;98165.63;1815222;78;20269;-88
2020/12/14 01:17:03;;;;;;;;;;;;;;;3.34;79.73;98169.06;1790543;78;24911;-87
2020/12/14 01:19:50;;;;;;;;;;;;;;;3.24;79.74;98174.27;1813821;78;22095;-88
2020/12/14 01:22:39;;;;;;;;;;;;;;;3.11;79.70;98166.20;1813767;78;26095;-88
2020/12/14 01:25:25;;;;;;;;;;;;;;;3.05;79.68;98172.13;1754051;79;24370;-88
2020/12/14 01:28:11;;;;;;;;;;;;;;;3.04;79.66;98184.20;1773310;80;20341;-88
2020/12/14 01:31:01;;;;;;;;;;;;;;;3.09;79.61;98186.59;1749195;80;24643;-88
2020/12/14 01:33:48;;;;;;;;;;;;;;;3.23;79.62;98194.56;1777682;80;22372;-87
2020/12/14 01:36:36;;;;;;;;;;;;;;;3.29;79.61;98200.76;1750813;79;27016;-88
2020/12/14 01:39:23;;;;;;;;;;;;;;;3.18;79.64;98193.92;1778035;79;25541;-88
2020/12/14 01:42:11;;;;;;;;;;;;;;;2.97;79.67;98196.16;1783922;80;20481;-87
2020/12/14 01:44:57;;;;;;;;;;;;;;;2.82;79.65;98199.80;1779404;79;24918;-87
2020/12/14 01:47:44;;;;;;;;;;;;;;;2.69;79.63;98197.33;1776811;80;22353;-87
2020/12/14 01:50:32;;;;;;;;;;;;;;;2.58;79.59;98199.97;1774624;79;25929;-87
2020/12/14 01:53:18;;;;;;;;;;;;;;;2.47;79.56;98196.55;1791728;79;24568;-87
2020/12/14 01:56:05;;;;;;;;;;;;;;;2.39;79.55;98197.33;1792268;80;20309;-87
2020/12/14 01:58:52;;;;;;;;;;;;;;;2.30;79.53;98202.84;1752299;81;24920;-87
2020/12/14 02:01:39;;;;;;;;;;;;;;;2.21;79.52;98201.48;1751545;80;22817;-87
2020/12/14 02:04:26;;;;;;;;;;;;;;;2.12;79.50;98203.16;1749581;81;26133;-87
2020/12/14 02:07:02;;;;;;;;;;;;;;;2.14;79.48;98204.36;1733635;81;24425;-87
2020/12/14 02:09:54;;;;;;;;;;;;;;;2.20;79.49;98207.98;1755851;81;20403;-87
2020/12/14 02:12:40;;;;;;;;;;;;;;;2.26;79.52;98212.91;1742645;80;24647;-87
2020/12/14 02:15:26;;;;;;;;;;;;;;;2.41;79.53;98210.99;1748411;81;22124;-87
2020/12/14 02:18:13;;;;;;;;;;;;;;;2.56;79.59;98212.97;1770370;80;26119;-87
2020/12/14 02:21:00;;;;;;;;;;;;;;;2.76;79.63;98208.25;1763878;80;26282;-87
2020/12/14 02:23:46;;;;;;;;;;;;;;;2.89;79.71;98204.27;1759381;80;20544;-87
2020/12/14 02:26:34;;;;;;;;;;;;;;;3.00;79.76;98208.97;1765494;80;25168;-87
2020/12/14 02:29:21;;;;;;;;;;;;;;;3.18;79.81;98206.41;1779035;79;22329;-87
2020/12/14 02:32:08;;;;;;;;;;;;;;;3.27;79.87;98208.58;1790327;79;27062;-87
2020/12/14 02:34:54;;;;;;;;;;;;;;;3.35;79.90;98219.89;1775110;79;24700;-87
2020/12/14 02:37:40;;;;;;;;;;;;;;;3.46;79.93;98216.37;1780522;80;20426;-87
2020/12/14 02:40:30;;;;;;;;;;;;;;;3.53;79.95;98218.23;1777802;80;24961;-87
2020/12/14 02:46:09;;;;;;;;;;;;;;;3.60;79.96;98216.58;1768661;80;26092;-88
2020/12/14 02:48:56;;;;;;;;;;;;;;;3.60;79.98;98217.87;1765412;80;24635;-87
2020/12/14 02:51:32;;;;;;;;;;;;;;;3.61;79.96;98215.67;1767498;80;20470;-87
2020/12/14 02:54:19;;;;;;;;;;;;;;;3.41;80.00;98213.15;1769916;80;24137;-87
2020/12/14 02:57:06;;;;;;;;;;;;;;;3.39;79.98;98213.66;1767163;80;21753;-87
2020/12/14 02:59:52;;;;;;;;;;;;;;;3.39;79.95;98217.54;1769657;80;26058;-87
2020/12/14 03:02:39;;;;;;;;;;;;;;;3.38;79.95;98221.52;1779906;79;24678;-87
2020/12/14 03:05:27;;;;;;;;;;;;;;;3.45;79.92;98226.77;1782311;80;20493;-88
2020/12/14 03:08:13;;;;;;;;;;;;;;;3.47;79.90;98227.11;1775714;80;24878;-87
2020/12/14 03:11:00;;;;;;;;;;;;;;;3.52;79.91;98222.56;1782692;79;22133;-88
2020/12/14 03:13:47;;;;;;;;;;;;;;;3.54;79.89;98216.87;1783261;79;26081;-87
2020/12/14 03:19:11;;;;;;;;;;;;;;;3.36;79.93;98217.69;1762977;80;20327;-87
2020/12/14 03:21:57;;;;;;;;;;;;;;;3.46;79.90;98211.20;1766113;81;24916;-88
2020/12/14 03:24:44;;;;;;;;;;;;;;;3.58;79.87;98211.95;1765998;80;22380;-87
2020/12/14 03:27:30;;;;;;;;;;;;;;;3.70;79.87;98210.09;1780173;79;26328;-87
2020/12/14 03:30:18;;;;;;;;;;;;;;;3.88;79.86;98207.55;1775013;79;24842;-87
2020/12/14 03:33:05;;;;;;;;;;;;;;;3.93;79.85;98208.20;1758873;80;20261;-87
2020/12/14 03:35:52;;;;;;;;;;;;;;;4.05;79.87;98214.07;1747940;81;24756;-87
2020/12/14 03:38:38;;;;;;;;;;;;;;;4.06;79.87;98214.00;1767479;80;22959;-87
2020/12/14 03:41:26;;;;;;;;;;;;;;;4.06;79.88;98224.36;1791409;79;25960;-87
2020/12/14 03:44:12;;;;;;;;;;;;;;;4.06;79.85;98231.29;1762544;79;24561;-87
2020/12/14 03:46:59;;;;;;;;;;;;;;;3.97;79.81;98227.39;1768525;80;20473;-87
2020/12/14 03:49:46;;;;;;;;;;;;;;;3.89;79.78;98233.81;1774632;80;23818;-87
2020/12/14 03:52:32;;;;;;;;;;;;;;;3.87;79.72;98230.03;1775718;80;22220;-87
2020/12/14 03:55:19;;;;;;;;;;;;;;;3.90;79.70;98231.17;1770971;80;27142;-87
2020/12/14 03:58:10;;;;;;;;;;;;;;;3.87;79.68;98229.19;1777704;80;24597;-87
2020/12/14 04:00:56;;;;;;;;;;;;;;;3.88;79.63;98225.66;1775325;80;20335;-87
2020/12/14 04:03:45;;;;;;;;;;;;;;;3.90;79.62;98234.20;1778906;80;24916;-87
2020/12/14 04:06:32;;;;;;;;;;;;;;;3.85;79.62;98237.47;1779906;79;22203;-87
2020/12/14 04:09:20;;;;;;;;;;;;;;;3.76;79.59;98243.91;1777505;80;26115;-87
2020/12/14 04:12:07;;;;;;;;;;;;;;;3.71;79.56;98247.14;1772726;80;24853;-88
2020/12/14 04:14:54;;;;;;;;;;;;;;;3.72;79.53;98247.08;1771576;79;20406;-87
2020/12/14 04:17:40;;;;;;;;;;;;;;;3.74;79.48;98255.63;1804203;79;25833;-88
2020/12/14 04:20:27;;;;;;;;;;;;;;;3.82;79.48;98260.43;1766700;80;22243;-87
2020/12/14 04:23:14;;;;;;;;;;;;;;;3.83;79.44;98259.98;1773966;79;26168;-87
2020/12/14 04:26:04;;;;;;;;;;;;;;;3.85;79.43;98260.31;1795465;79;24854;-87
2020/12/14 04:28:50;;;;;;;;;;;;;;;3.91;79.42;98256.60;1796976;79;20269;-87
2020/12/14 04:31:37;;;;;;;;;;;;;;;3.88;79.42;98257.56;1761222;80;25103;-87
2020/12/14 04:34:23;;;;;;;;;;;;;;;3.76;79.44;98259.45;1809679;79;22334;-87
2020/12/14 04:36:58;;;;;;;;;;;;;;;3.70;79.42;98257.13;1803602;78;27078;-87
2020/12/14 04:39:45;;;;;;;;;;;;;;;3.64;79.40;98265.16;1765416;80;25513;-87
2020/12/14 04:42:32;;;;;;;;;;;;;;;3.56;79.38;98266.78;1775152;79;20401;-87
2020/12/14 04:45:18;;;;;;;;;;;;;;;3.44;79.37;98268.61;1762821;80;24912;-87
2020/12/14 04:48:07;;;;;;;;;;;;;;;3.43;79.32;98272.58;1786815;79;21923;-87
2020/12/14 04:50:53;;;;;;;;;;;;;;;3.44;79.29;98275.56;1794145;79;26178;-87
2020/12/14 04:53:40;;;;;;;;;;;;;;;3.44;79.26;98288.02;1770501;81;24676;-87
2020/12/14 04:56:26;;;;;;;;;;;;;;;3.47;79.19;98287.89;1751411;81;20411;-87
2020/12/14 04:59:12;;;;;;;;;;;;;;;3.42;79.18;98288.55;1779084;79;25724;-87
2020/12/14 05:01:59;;;;;;;;;;;;;;;3.33;79.18;98296.23;1782210;79;22291;-87
2020/12/14 05:04:46;;;;;;;;;;;;;;;3.40;79.15;98305.03;1785670;79;27011;-87
2020/12/14 05:07:33;;;;;;;;;;;;;;;3.39;79.11;98314.53;1790170;79;24705;-87
2020/12/14 05:10:21;;;;;;;;;;;;;;;3.42;79.09;98309.25;1765598;79;20547;-87
2020/12/14 05:13:08;;;;;;;;;;;;;;;3.27;79.06;98298.27;1779511;79;24907;-87
2020/12/14 05:15:42;;;;;;;;;;;;;;;3.09;79.06;98306.34;1786425;79;22135;-87
2020/12/14 05:18:32;;;;;;;;;;;;;;;3.00;79.03;98304.13;1788100;79;26504;-87
2020/12/14 05:21:23;;;;;;;;;;;;;;;3.02;78.99;98308.79;1768165;80;24708;-87
2020/12/14 05:24:09;;;;;;;;;;;;;;;3.04;78.96;98315.20;1805058;79;20540;-87
2020/12/14 05:26:58;;;;;;;;;;;;;;;3.12;78.92;98315.25;1800781;79;24973;-86
2020/12/14 05:29:44;;;;;;;;;;;;;;;3.17;78.90;98320.23;1807077;79;22095;-87
2020/12/14 05:32:18;;;;;;;;;;;;;;;2.98;78.90;98324.05;1804154;79;26183;-87
2020/12/14 05:35:05;;;;;;;;;;;;;;;2.88;78.90;98321.00;1803025;79;24579;-87
2020/12/14 05:37:53;;;;;;;;;;;;;;;2.83;78.88;98331.98;1808116;78;20285;-87
2020/12/14 05:40:44;;;;;;;;;;;;;;;2.72;78.86;98326.41;1808018;79;24930;-86
2020/12/14 05:43:31;;;;;;;;;;;;;;;2.74;78.83;98327.16;1802889;79;21851;-87
2020/12/14 05:46:21;;;;;;;;;;;;;;;2.75;78.82;98329.30;1808238;79;26101;-87
2020/12/14 05:49:09;;;;;;;;;;;;;;;2.87;78.80;98325.78;1772226;80;25221;-87
2020/12/14 05:51:56;;;;;;;;;;;;;;;2.86;78.80;98331.00;1804386;79;20203;-87
2020/12/14 05:54:42;;;;;;;;;;;;;;;2.76;78.80;98337.00;1812052;79;24880;-86
2020/12/14 05:57:29;;;;;;;;;;;;;;;2.66;78.82;98337.42;1804896;79;22370;-87
2020/12/14 06:00:15;;;;;;;;;;;;;;;2.78;78.77;98339.53;1809107;79;26202;-86
2020/12/14 06:03:01;;;;;;;;;;;;;;;2.90;78.77;98345.02;1765202;79;23911;-87
2020/12/14 06:05:51;;;;;;;;;;;;;;;2.80;78.79;98343.72;1806786;79;20449;-86
2020/12/14 06:08:40;;;;;;;;;;;;;;;2.78;78.79;98335.66;1810038;79;24851;-86
2020/12/14 06:11:31;;;;;;;;;;;;;;;2.65;78.78;98334.45;1741184;79;21847;-86
2020/12/14 06:14:17;;;;;;;;;;;;;;;2.61;78.76;98336.33;1807081;79;27000;-87
2020/12/14 06:17:04;;;;;;;;;;;;;;;2.60;78.74;98324.30;1809013;79;25607;-86
2020/12/14 06:19:51;;;;;;;;;;;;;;;2.58;78.73;98323.52;1804536;79;20273;-86
2020/12/14 06:22:26;;;;;;;;;;;;;;;2.44;78.71;98329.68;1807265;79;25771;-87
2020/12/14 06:25:16;;;;;;;;;;;;;;;2.39;78.70;98329.02;1808147;79;22142;-86
2020/12/14 06:28:04;;;;;;;;;;;;;;;2.45;78.66;98335.24;1807813;79;26510;-86
2020/12/14 06:30:50;;;;;;;;;;;;;;;2.49;78.62;98344.55;1780228;79;24613;-87
2020/12/14 06:33:41;;;;;;;;;;;;;;;2.46;78.63;98345.94;1788023;79;20278;-86
2020/12/14 06:36:29;;;;;;;;;;;;;;;2.47;78.62;98341.17;1793229;79;24402;-86
2020/12/14 06:39:15;;;;;;;;;;;;;;;2.23;78.63;98340.84;1801372;79;22045;-86
2020/12/14 06:42:06;;;;;;;;;;;;;;;2.09;78.59;98342.62;1799539;79;26070;-86
2020/12/14 06:44:52;;;;;;;;;;;;;;;1.96;78.59;98347.87;1740148;81;25084;-86
2020/12/14 06:47:28;;;;;;;;;;;;;;;1.95;78.54;98344.89;1787084;79;20493;-86
2020/12/14 06:50:15;;;;;;;;;;;;;;;2.08;78.50;98344.81;1775798;80;25571;-86
2020/12/14 06:53:01;;;;;;;;;;;;;;;2.21;78.48;98347.34;1761995;80;21614;-86
2020/12/14 06:55:51;;;;;;;;;;;;;;;2.33;78.47;98352.05;1807603;79;26151;-86
2020/12/14 06:58:40;;;;;;;;;;;;;;;2.51;78.49;98356.48;1757498;80;24596;-86
2020/12/14 07:01:26;;;;;;;;;;;;;;;2.68;78.51;98364.02;1763652;79;20260;-85
2020/12/14 07:04:15;;;;;;;;;;;;;;;2.63;78.56;98360.33;1808809;78;24437;-86
2020/12/14 07:07:01;;;;;;;;;;;;;;;2.53;78.59;98365.47;1781215;79;22157;-85
2020/12/14 07:09:48;;;;;;;;;;;;;;;2.61;78.60;98362.16;1789043;79;27068;-86
2020/12/14 07:12:23;;;;;;;;;;;;;;;2.64;78.62;98356.85;1774795;79;25502;-86
2020/12/14 07:15:10;;;;;;;;;;;;;;;2.76;78.62;98361.99;1757953;80;20310;-86
2020/12/14 07:17:56;;;;;;;;;;;;;;;2.85;78.63;98359.88;1765526;80;25111;-85
2020/12/14 07:20:45;;;;;;;;;;;;;;;2.93;78.62;98363.45;1762908;81;23057;-85
2020/12/14 07:23:32;;;;;;;;;;;;;;;2.94;78.61;98365.98;1781904;79;26198;-85
2020/12/14 07:26:19;;;;;;;;;;;;;;;2.91;78.61;98373.84;1799898;79;24605;-86
2020/12/14 07:29:07;;;;;;;;;;;;;;;2.84;78.60;98366.39;1802016;79;20298;-86
2020/12/14 07:31:54;;;;;;;;;;;;;;;2.85;78.56;98372.80;1800514;79;24979;-86
2020/12/14 07:34:41;;;;;;;;;;;;;;;2.90;78.52;98376.03;1806580;79;22152;-85
2020/12/14 07:37:29;;;;;;;;;;;;;;;2.84;78.49;98372.40;1784236;79;25286;-86
2020/12/14 07:40:15;;;;;;;;;;;;;;;2.85;78.48;98370.66;1801354;79;24577;-86
2020/12/14 07:43:03;;;;;;;;;;;;;;;2.82;78.46;98375.52;1774007;80;20740;-86
2020/12/14 07:45:49;;;;;;;;;;;;;;;2.82;78.43;98371.64;1769918;80;24896;-86
2020/12/14 07:48:37;;;;;;;;;;;;;;;2.78;78.39;98361.02;1804022;79;22147;-86
2020/12/14 07:51:23;;;;;;;;;;;;;;;2.76;78.38;98369.74;1782112;80;26247;-85
2020/12/14 07:54:09;;;;;;;;;;;;;;;2.70;78.36;98371.27;1810169;79;24626;-86
2020/12/14 07:56:58;;;;;;;;;;;;;;;2.71;78.35;98372.52;1805431;79;20398;-86
2020/12/14 07:59:46;;;;;;;;;;;;;;;2.74;78.33;98376.25;1785948;79;24867;-85
2020/12/14 08:02:34;;;;;;;;;;;;;;;2.73;78.33;98368.11;1807023;79;22109;-86
2020/12/14 08:05:20;;;;;;;;;;;;;;;2.70;78.32;98373.86;1805081;79;25450;-85
2020/12/14 08:08:10;;;;;;;;;;;;;;;2.70;78.32;98373.41;1806461;79;24626;-85
2020/12/14 08:10:57;;;;;;;;;;;;;;;2.73;78.28;98373.27;1807803;77;20472;-84
2020/12/14 08:13:46;;;;;;;;;;;;;;;2.76;78.31;98377.50;1806771;79;24886;-86
2020/12/14 08:16:32;;;;;;;;;;;;;;;2.80;78.29;98381.19;1789277;79;22401;-85
2020/12/14 08:19:21;;;;;;;;;;;;;;;2.90;78.27;98381.66;1807114;79;27135;-85
2020/12/14 08:22:08;;;;;;;;;;;;;;;2.98;78.28;98386.53;1783761;79;24419;-86
2020/12/14 08:24:55;;;;;;;;;;;;;;;3.04;78.29;98387.13;1802936;79;20354;-85
2020/12/14 08:27:41;;;;;;;;;;;;;;;3.10;78.30;98386.88;1803839;79;25104;-85
2020/12/14 08:30:28;;;;;;;;;;;;;;;3.13;78.31;98388.03;1806999;79;22005;-84
2020/12/14 08:33:14;;;;;;;;;;;;;;;3.21;78.31;98391.62;1811612;79;26454;-85
2020/12/14 08:35:48;;;;;;;;;;;;;;;3.26;78.30;98392.27;1811891;79;24724;-85
2020/12/14 08:38:36;;;;;;;;;;;;;;;3.24;78.31;98384.56;1806062;77;20548;-85
2020/12/14 08:41:23;;;;;;;;;;;;;;;3.27;78.31;98381.84;1809315;78;24980;-85
2020/12/14 08:44:09;;;;;;;;;;;;;;;3.33;78.29;98385.47;1816236;78;22237;-85
2020/12/14 08:46:56;;;;;;;;;;;;;;;3.45;78.28;98388.45;1803537;78;27045;-85
2020/12/14 08:49:43;;;;;;;;;;;;;;;3.43;78.31;98392.41;1776814;80;25362;-84
2020/12/14 08:52:30;;;;;;;;;;;;;;;3.28;78.30;98386.11;1781211;80;20415;-85
2020/12/14 08:55:16;;;;;;;;;;;;;;;3.26;78.27;98387.94;1770179;80;24897;-85
2020/12/14 08:58:05;;;;;;;;;;;;;;;3.32;78.23;98395.89;1776728;80;22367;-84
2020/12/14 09:00:52;;;;;;;;;;;;;;;3.42;78.22;98395.05;1771057;80;26092;-85
2020/12/14 09:03:42;;;;;;;;;;;;;;;3.43;78.22;98400.17;1762053;80;24537;-84
2020/12/14 09:06:29;;;;;;;;;;;;;;;3.41;78.20;98393.37;1775199;80;20367;-85
2020/12/14 09:09:17;;;;;;;;;;;;;;;3.48;78.17;98394.80;1767109;80;25739;-84
2020/12/14 09:12:04;;;;;;;;;;;;;;;3.45;78.15;98404.81;1780579;79;23154;-84
2020/12/14 09:14:51;;;;;;;;;;;;;;;3.45;78.14;98402.67;1762563;80;25995;-84
2020/12/14 09:20:32;;;;;;;;;;;;;;;3.75;78.07;98398.36;1792092;79;20329;-84
2020/12/14 09:23:22;;;;;;;;;;;;;;;3.78;78.08;98394.33;1789463;79;25777;-84
2020/12/14 09:26:09;;;;;;;;;;;;;;;3.84;78.08;98390.63;1782703;79;22337;-85
2020/12/14 09:28:55;;;;;;;;;;;;;;;3.82;78.07;98387.74;1821631;78;26113;-84
2020/12/14 09:31:41;;;;;;;;;;;;;;;3.82;78.06;98379.49;1808189;78;25490;-84
2020/12/14 09:34:27;;;;;;;;;;;;;;;3.78;78.05;98367.60;1756636;79;21231;-84
2020/12/14 09:37:14;;;;;;;;;;;;;;;3.73;78.03;98367.80;1772074;80;24974;-84
2020/12/14 09:40:02;;;;;;;;;;;;;;;3.70;77.96;98367.11;1830644;78;22347;-85
2020/12/14 09:42:48;;;;;;;;;;;;;;;3.68;77.90;98371.05;1824335;78;26189;-85
2020/12/14 09:45:36;;;;;;;;;;;;;;;3.67;77.82;98365.48;1833435;78;24619;-85
2020/12/14 09:48:23;;;;;;;;;;;;;;;3.68;77.77;98365.03;1811310;78;20441;-85
2020/12/14 09:51:09;;;;;;;;;;;;;;;3.70;77.73;98369.25;1800169;78;24909;-85
2020/12/14 09:53:45;;;;;;;;;;;;;;;3.78;77.68;98370.19;1808862;78;22143;-85
2020/12/14 09:56:39;;;;;;;;;;;;;;;3.88;77.64;98370.17;1802025;78;26256;-85
2020/12/14 09:59:27;;;;;;;;;;;;;;;3.87;77.64;98380.16;1802824;78;25480;-85
2020/12/14 10:02:16;;;;;;;;;;;;;;;3.86;77.62;98381.52;1807481;78;20272;-85
2020/12/14 10:05:03;;;;;;;;;;;;;;;3.82;77.59;98379.49;1810378;78;24975;-85
2020/12/14 10:07:50;;;;;;;;;;;;;;;3.77;77.53;98372.38;1802521;78;22124;-86
2020/12/14 10:10:37;;;;;;;;;;;;;;;3.82;77.46;98374.80;1798439;79;26174;-86
2020/12/14 10:13:12;;;;;;;;;;;;;;;3.87;77.41;98365.08;1797998;78;24634;-85
2020/12/14 10:16:03;;;;;;;;;;;;;;;3.87;77.36;98365.08;1824594;78;20581;-84
2020/12/14 10:18:49;;;;;;;;;;;;;;;3.90;77.35;98360.59;1804200;78;24996;-85
2020/12/14 10:21:36;;;;;;;;;;;;;;;3.92;77.30;98357.95;1809176;77;22085;-86
2020/12/14 10:24:23;;;;;;;;;;;;;;;3.91;77.25;98357.56;1775814;79;26310;-85
2020/12/14 10:27:10;;;;;;;;;;;;;;;3.89;77.20;98353.73;1797585;79;24675;-85
2020/12/14 10:29:57;;;;;;;;;;;;;;;3.87;77.14;98358.61;1770281;80;20262;-85
2020/12/14 10:32:44;;;;;;;;;;;;;;;3.84;77.09;98355.69;1775871;79;24683;-86
2020/12/14 10:35:33;;;;;;;;;;;;;;;3.82;77.03;98360.56;1744623;80;22144;-85
2020/12/14 10:38:19;;;;;;;;;;;;;;;3.84;76.99;98361.31;1765083;80;26185;-86
2020/12/14 10:41:09;;;;;;;;;;;;;;;3.83;76.92;98347.53;1768280;80;25392;-86
2020/12/14 10:43:55;;;;;;;;;;;;;;;3.84;76.87;98345.78;1756919;80;20260;-85
2020/12/14 10:46:46;;;;;;;;;;;;;;;3.86;76.80;98349.16;1802223;79;24948;-86
2020/12/14 10:49:32;;;;;;;;;;;;;;;3.89;76.75;98349.85;1799318;79;22359;-86
2020/12/14 10:52:15;;;;;;;;;;;;;;;3.93;76.71;98354.46;1797091;79;26308;-85
2020/12/14 10:55:01;;;;;;;;;;;;;;;3.99;76.67;98360.18;1797255;79;24580;-85
2020/12/14 10:57:52;;;;;;;;;;;;;;;4.07;76.65;98355.97;1799551;79;20455;-86
2020/12/14 11:00:39;;;;;;;;;;;;;;;4.11;76.63;98346.69;1797386;79;24907;-86
2020/12/14 11:03:26;;;;;;;;;;;;;;;4.08;76.60;98342.96;1742718;79;20602;-86
2020/12/14 11:06:13;;;;;;;;;;;;;;;4.10;76.57;98349.34;1776491;79;26091;-86
2020/12/14 11:08:59;;;;;;;;;;;;;;;4.11;76.49;98352.32;1795838;77;24733;-86
2020/12/14 11:11:45;;;;;;;;;;;;;;;4.13;76.44;98350.52;1799650;79;20338;-86
2020/12/14 11:14:32;;;;;;;;;;;;;;;4.13;76.37;98354.40;1799557;79;25714;-86
2020/12/14 11:17:19;;;;;;;;;;;;;;;4.12;76.32;98352.27;1785137;79;22097;-86
2020/12/14 11:20:08;;;;;;;;;;;;;;;4.13;76.26;98344.88;1760941;79;25911;-86
2020/12/14 11:22:55;;;;;;;;;;;;;;;4.16;76.23;98338.70;1796998;79;24578;-86
2020/12/14 11:25:41;;;;;;;;;;;;;;;4.15;76.18;98334.44;1799727;79;20312;-86
2020/12/14 11:28:29;;;;;;;;;;;;;;;4.20;76.13;98335.06;1790514;78;25729;-86
2020/12/14 11:31:18;;;;;;;;;;;;;;;4.19;76.12;98328.22;1792176;79;22157;-86
2020/12/14 11:34:06;;;;;;;;;;;;;;;4.22;76.04;98329.36;1785759;78;26120;-86
2020/12/14 11:36:53;;;;;;;;;;;;;;;4.25;76.00;98327.95;1787218;79;23664;-86
2020/12/14 11:39:42;;;;;;;;;;;;;;;4.28;75.99;98329.54;1816031;77;20286;-85
2020/12/14 11:42:30;;;;;;;;;;;;;;;4.27;75.95;98340.35;1788529;78;24717;-86
2020/12/14 11:45:16;;;;;;;;;;;;;;;4.27;75.90;98342.94;1788388;78;20672;-86
2020/12/14 11:48:03;;;;;;;;;;;;;;;4.28;75.84;98339.90;1766386;80;27073;-86
2020/12/14 11:50:50;;;;;;;;;;;;;;;4.28;75.81;98347.67;1785867;79;24679;-85
2020/12/14 11:53:36;;;;;;;;;;;;;;;4.32;75.76;98339.69;1793895;79;20290;-86
2020/12/14 11:56:24;;;;;;;;;;;;;;;4.35;75.75;98343.44;1789544;79;24972;-86
2020/12/14 11:59:10;;;;;;;;;;;;;;;4.35;75.70;98347.33;1787226;79;23059;-85
2020/12/14 12:01:56;;;;;;;;;;;;;;;4.34;75.67;98349.53;1788560;79;27106;-85
2020/12/14 12:04:44;;;;;;;;;;;;;;;4.32;75.64;98340.98;1783487;79;24091;-85
2020/12/14 12:07:31;;;;;;;;;;;;;;;4.32;75.59;98346.16;1790965;79;20467;-86
2020/12/14 12:10:17;;;;;;;;;;;;;;;4.30;75.54;98335.50;1790374;79;25741;-85
2020/12/14 12:13:04;;;;;;;;;;;;;;;4.33;75.50;98345.70;1797338;79;21889;-86
2020/12/14 12:15:50;;;;;;;;;;;;;;;4.34;75.46;98345.64;1788951;79;27076;-86
2020/12/14 12:18:38;;;;;;;;;;;;;;;4.36;75.43;98340.41;1829581;77;24341;-85
2020/12/14 12:21:25;;;;;;;;;;;;;;;4.37;75.42;98327.35;1785008;78;20417;-86
2020/12/14 12:24:13;;;;;;;;;;;;;;;4.40;75.41;98327.68;1759294;81;25272;-86
2020/12/14 12:27:00;;;;;;;;;;;;;;;4.42;75.38;98331.86;1768090;79;21998;-86
2020/12/14 12:29:47;;;;;;;;;;;;;;;4.43;75.37;98332.25;1797855;78;27312;-85
2020/12/14 12:32:34;;;;;;;;;;;;;;;4.44;75.36;98333.94;1767054;80;24829;-87
2020/12/14 12:35:21;;;;;;;;;;;;;;;4.43;75.35;98330.95;1774731;80;20603;-87
2020/12/14 12:38:08;;;;;;;;;;;;;;;4.41;75.34;98325.03;1808492;78;25828;-87
2020/12/14 12:40:54;;;;;;;;;;;;;;;4.42;75.29;98320.20;1817293;78;21880;-86
2020/12/14 12:43:41;;;;;;;;;;;;;;;4.41;75.27;98315.96;1766566;79;26927;-86
2020/12/14 12:46:28;;;;;;;;;;;;;;;4.41;75.27;98314.66;1769051;80;24718;-86
2020/12/14 12:49:14;;;;;;;;;;;;;;;4.41;75.24;98319.00;1794744;80;20396;-86
2020/12/14 12:52:03;;;;;;;;;;;;;;;4.41;75.21;98317.25;1810268;78;25892;-87
2020/12/14 12:54:50;;;;;;;;;;;;;;;4.41;75.21;98316.41;1786412;78;22008;-86
2020/12/14 12:57:36;;;;;;;;;;;;;;;4.39;75.17;98312.59;1803924;78;26193;-86
2020/12/14 13:00:25;;;;;;;;;;;;;;;4.40;75.16;98319.45;1811666;78;24614;-87
2020/12/14 13:03:12;;;;;;;;;;;;;;;4.43;75.13;98328.36;1796132;78;20688;-88
2020/12/14 13:05:59;;;;;;;;;;;;;;;4.42;75.14;98327.98;1806724;78;24951;-87
2020/12/14 13:08:47;;;;;;;;;;;;;;;4.39;75.13;98328.14;1760703;80;23437;-88
2020/12/14 13:11:39;;;;;;;;;;;;;;;4.36;75.10;98329.59;1777571;77;25901;-87
2020/12/14 13:14:24;;;;;;;;;;;;;;;4.34;75.09;98325.38;1785051;79;24788;-87
2020/12/14 13:17:10;;;;;;;;;;;;;;;4.28;75.04;98323.91;1783520;79;20301;-87
2020/12/14 13:19:57;;;;;;;;;;;;;;;4.25;75.00;98326.66;1808965;78;24863;-87
2020/12/14 13:22:44;;;;;;;;;;;;;;;4.25;74.97;98321.47;1800240;79;22210;-88
2020/12/14 13:25:31;;;;;;;;;;;;;;;4.26;75.00;98323.13;1796816;79;26179;-87
2020/12/14 13:28:18;;;;;;;;;;;;;;;4.29;74.98;98324.30;1810308;79;24883;-87
2020/12/14 13:31:10;;;;;;;;;;;;;;;4.32;74.99;98325.89;1799098;79;20197;-88
2020/12/14 13:33:58;;;;;;;;;;;;;;;4.34;74.98;98315.02;1801963;79;25019;-89
2020/12/14 13:36:45;;;;;;;;;;;;;;;4.36;75.00;98324.41;1803737;78;21988;-89
2020/12/14 13:39:32;;;;;;;;;;;;;;;4.38;75.01;98332.92;1829125;77;25659;-88
2020/12/14 13:42:18;;;;;;;;;;;;;;;4.41;75.00;98327.62;1796057;78;24676;-87
2020/12/14 13:45:11;;;;;;;;;;;;;;;4.41;75.01;98330.21;1785635;79;20315;-87
2020/12/14 13:47:58;;;;;;;;;;;;;;;4.40;75.01;98331.11;1781068;79;25914;-88
2020/12/14 13:50:46;;;;;;;;;;;;;;;4.40;74.99;98331.11;1779716;79;22151;-88
2020/12/14 13:53:34;;;;;;;;;;;;;;;4.36;74.99;98328.30;1799820;79;27069;-88
2020/12/14 13:56:20;;;;;;;;;;;;;;;4.33;74.99;98326.28;1800196;79;24569;-88
2020/12/14 13:59:07;;;;;;;;;;;;;;;4.32;74.97;98329.77;1797255;79;20344;-87
2020/12/14 14:01:54;;;;;;;;;;;;;;;4.26;74.94;98328.76;1777546;79;24830;-87
2020/12/14 14:04:41;;;;;;;;;;;;;;;4.21;74.92;98335.00;1803979;79;22165;-88
2020/12/14 14:07:28;;;;;;;;;;;;;;;4.20;74.90;98335.90;1805825;79;25279;-87
2020/12/14 14:10:17;;;;;;;;;;;;;;;4.25;74.89;98344.78;1803104;79;24642;-88
2020/12/14 14:13:03;;;;;;;;;;;;;;;4.44;74.90;98349.48;1796958;79;20364;-88
2020/12/14 14:15:51;;;;;;;;;;;;;;;4.44;74.92;98353.37;1811616;78;25530;-88
2020/12/14 14:18:42;;;;;;;;;;;;;;;4.40;74.92;98358.77;1801657;79;22327;-87
2020/12/14 14:21:29;;;;;;;;;;;;;;;4.43;74.93;98355.57;1794828;79;26092;-87
2020/12/14 14:24:16;;;;;;;;;;;;;;;4.63;74.91;98359.39;1786712;79;25701;-87
2020/12/14 14:27:03;;;;;;;;;;;;;;;4.82;74.93;98352.86;1770330;79;20267;-88
2020/12/14 14:29:50;;;;;;;;;;;;;;;4.93;74.96;98354.93;1787474;79;24975;-88
2020/12/14 14:32:37;;;;;;;;;;;;;;;5.01;74.99;98354.11;1757519;79;23038;-87
2020/12/14 14:35:24;;;;;;;;;;;;;;;5.05;75.00;98355.19;1784554;79;27059;-87
2020/12/14 14:38:15;;;;;;;;;;;;;;;5.12;74.98;98358.78;1788486;79;24660;-87
2020/12/14 14:41:02;;;;;;;;;;;;;;;5.17;74.98;98363.28;1781896;79;20378;-86
2020/12/14 14:43:49;;;;;;;;;;;;;;;5.16;74.95;98357.25;1787373;79;24916;-86
2020/12/14 14:46:35;;;;;;;;;;;;;;;5.10;74.94;98358.00;1798288;79;22193;-86
2020/12/14 14:49:22;;;;;;;;;;;;;;;4.98;74.91;98365.91;1799221;79;24629;-86